sensor_id;sensor_type;location;lat;lon;timestamp;pressure;altitude;pressure_sealevel;temperature;humidity
7052;BME280;3567;52.444;13.556;2023-03-14T00:00:29;98886.00;;;12.15;93.30
7052;BME280;3567;52.444;13.556;2023-03-14T00:02:55;98883.84;;;12.12;93.81
7052;BME280;3567;52.444;13.556;2023-03-14T00:05:20;98884.41;;;12.09;93.66
7052;BME280;3567;52.444;13.556;2023-03-14T00:07:45;98898.41;;;12.05;93.80
7052;BME280;3567;52.444;13.556;2023-03-14T00:10:13;98893.59;;;12.02;94.15
7052;BME280;3567;52.444;13.556;2023-03-14T00:12:40;98879.69;;;12.00;94.45
7052;BME280;3567;52.444;13.556;2023-03-14T00:15:06;98881.28;;;12.01;94.28
7052;BME280;3567;52.444;13.556;2023-03-14T00:17:32;98885.59;;;11.97;95.06
7052;BME280;3567;52.444;13.556;2023-03-14T00:19:58;98868.50;;;11.93;95.21
7052;BME280;3567;52.444;13.556;2023-03-14T00:22:30;98851.84;;;11.91;95.16
7052;BME280;3567;52.444;13.556;2023-03-14T00:24:55;98847.06;;;11.88;95.61
7052;BME280;3567;52.444;13.556;2023-03-14T00:27:20;98833.13;;;11.86;96.04
7052;BME280;3567;52.444;13.556;2023-03-14T00:29:45;98825.91;;;11.82;96.16
7052;BME280;3567;52.444;13.556;2023-03-14T00:32:11;98826.72;;;11.77;96.62
7052;BME280;3567;52.444;13.556;2023-03-14T00:34:36;98828.91;;;11.75;96.72
7052;BME280;3567;52.444;13.556;2023-03-14T00:37:02;98825.72;;;11.73;97.17
7052;BME280;3567;52.444;13.556;2023-03-14T00:39:27;98830.28;;;11.72;96.81
7052;BME280;3567;52.444;13.556;2023-03-14T00:41:52;98810.75;;;11.67;97.28
7052;BME280;3567;52.444;13.556;2023-03-14T00:44:17;98808.91;;;11.62;97.28
7052;BME280;3567;52.444;13.556;2023-03-14T00:46:43;98814.03;;;11.59;97.54
7052;BME280;3567;52.444;13.556;2023-03-14T00:49:08;98819.94;;;11.55;98.13
7052;BME280;3567;52.444;13.556;2023-03-14T00:51:33;98835.81;;;11.52;98.10
7052;BME280;3567;52.444;13.556;2023-03-14T00:53:59;98820.28;;;11.49;98.28
7052;BME280;3567;52.444;13.556;2023-03-14T00:56:25;98813.06;;;11.44;99.07
7052;BME280;3567;52.444;13.556;2023-03-14T00:58:53;98809.88;;;11.42;99.16
7052;BME280;3567;52.444;13.556;2023-03-14T01:01:19;98799.72;;;11.39;99.04
7052;BME280;3567;52.444;13.556;2023-03-14T01:03:45;98782.03;;;11.38;99.08
7052;BME280;3567;52.444;13.556;2023-03-14T01:06:16;98786.88;;;11.36;100.00
7052;BME280;3567;52.444;13.556;2023-03-14T01:08:42;98789.56;;;11.36;99.94
7052;BME280;3567;52.444;13.556;2023-03-14T01:11:10;98784.50;;;11.35;99.88
7052;BME280;3567;52.444;13.556;2023-03-14T01:13:36;98783.66;;;11.34;100.00
7052;BME280;3567;52.444;13.556;2023-03-14T01:16:06;98784.53;;;11.30;100.00
7052;BME280;3567;52.444;13.556;2023-03-14T01:18:33;98795.53;;;11.28;100.00
7052;BME280;3567;52.444;13.556;2023-03-14T01:21:01;98799.56;;;11.25;100.00
7052;BME280;3567;52.444;13.556;2023-03-14T01:23:26;98806.81;;;11.25;100.00
7052;BME280;3567;52.444;13.556;2023-03-14T01:25:52;98827.44;;;11.30;100.00
7052;BME280;3567;52.444;13.556;2023-03-14T01:28:17;98853.66;;;11.33;100.00
7052;BME280;3567;52.444;13.556;2023-03-14T01:30:43;98863.84;;;11.36;100.00
7052;BME280;3567;52.444;13.556;2023-03-14T01:33:08;98840.50;;;11.36;100.00
7052;BME280;3567;52.444;13.556;2023-03-14T01:35:33;98846.38;;;11.38;100.00
7052;BME280;3567;52.444;13.556;2023-03-14T01:37:59;98849.06;;;11.38;100.00
7052;BME280;3567;52.444;13.556;2023-03-14T01:40:24;98849.59;;;11.40;100.00
7052;BME280;3567;52.444;13.556;2023-03-14T01:43:06;98847.94;;;11.44;100.00
7052;BME280;3567;52.444;13.556;2023-03-14T01:46:12;98846.88;;;11.45;100.00
7052;BME280;3567;52.444;13.556;2023-03-14T01:48:50;98855.19;;;11.44;100.00
7052;BME280;3567;52.444;13.556;2023-03-14T01:54:14;98868.31;;;11.45;100.00
7052;BME280;3567;52.444;13.556;2023-03-14T01:56:43;98876.38;;;11.45;100.00
7052;BME280;3567;52.444;13.556;2023-03-14T01:59:11;98869.13;;;11.46;100.00
7052;BME280;3567;52.444;13.556;2023-03-14T02:01:39;98868.56;;;11.44;100.00
7052;BME280;3567;52.444;13.556;2023-03-14T02:04:07;98866.47;;;11.41;100.00
7052;BME280;3567;52.444;13.556;2023-03-14T02:07:05;98852.53;;;11.39;100.00
7052;BME280;3567;52.444;13.556;2023-03-14T02:09:34;98849.34;;;11.37;100.00
7052;BME280;3567;52.444;13.556;2023-03-14T02:12:00;98846.16;;;11.35;100.00
7052;BME280;3567;52.444;13.556;2023-03-14T02:14:32;98839.16;;;11.34;100.00
7052;BME280;3567;52.444;13.556;2023-03-14T02:16:58;98832.78;;;11.30;100.00
7052;BME280;3567;52.444;13.556;2023-03-14T02:19:50;98827.97;;;11.26;100.00
7052;BME280;3567;52.444;13.556;2023-03-14T02:22:20;98819.69;;;11.23;100.00
7052;BME280;3567;52.444;13.556;2023-03-14T02:27:18;98819.44;;;11.19;100.00
7052;BME280;3567;52.444;13.556;2023-03-14T02:30:15;98821.88;;;11.16;100.00
7052;BME280;3567;52.444;13.556;2023-03-14T02:32:43;98822.44;;;11.13;100.00
7052;BME280;3567;52.444;13.556;2023-03-14T02:35:14;98814.38;;;11.13;100.00
7052;BME280;3567;52.444;13.556;2023-03-14T02:37:46;98822.97;;;11.15;100.00
7052;BME280;3567;52.444;13.556;2023-03-14T02:40:13;98813.56;;;11.17;100.00
7052;BME280;3567;52.444;13.556;2023-03-14T02:42:38;98799.34;;;11.17;100.00
7052;BME280;3567;52.444;13.556;2023-03-14T02:47:39;98807.66;;;11.20;100.00
7052;BME280;3567;52.444;13.556;2023-03-14T02:50:13;98804.97;;;11.20;100.00
7052;BME280;3567;52.444;13.556;2023-03-14T02:52:40;98797.72;;;11.21;100.00
7052;BME280;3567;52.444;13.556;2023-03-14T02:55:06;98792.91;;;11.18;100.00
7052;BME280;3567;52.444;13.556;2023-03-14T02:57:31;98787.56;;;11.18;100.00
7052;BME280;3567;52.444;13.556;2023-03-14T03:00:00;98780.09;;;11.15;100.00
7052;BME280;3567;52.444;13.556;2023-03-14T03:02:27;98779.56;;;11.13;100.00
7052;BME280;3567;52.444;13.556;2023-03-14T03:04:52;98768.84;;;11.13;100.00
7052;BME280;3567;52.444;13.556;2023-03-14T03:07:17;98765.34;;;11.12;100.00
7052;BME280;3567;52.444;13.556;2023-03-14T03:09:44;98757.91;;;11.09;100.00
7052;BME280;3567;52.444;13.556;2023-03-14T03:12:09;98742.63;;;11.10;100.00
7052;BME280;3567;52.444;13.556;2023-03-14T03:14:35;98729.72;;;11.12;100.00
7052;BME280;3567;52.444;13.556;2023-03-14T03:17:00;98722.50;;;11.12;100.00
7052;BME280;3567;52.444;13.556;2023-03-14T03:19:25;98709.88;;;11.13;100.00
7052;BME280;3567;52.444;13.556;2023-03-14T03:21:51;98707.75;;;11.15;100.00
7052;BME280;3567;52.444;13.556;2023-03-14T03:24:16;98702.66;;;11.13;100.00
7052;BME280;3567;52.444;13.556;2023-03-14T03:26:41;98704.53;;;11.13;100.00
7052;BME280;3567;52.444;13.556;2023-03-14T03:29:07;98697.88;;;11.10;100.00
7052;BME280;3567;52.444;13.556;2023-03-14T03:31:32;98716.13;;;11.08;100.00
7052;BME280;3567;52.444;13.556;2023-03-14T03:33:58;98740.22;;;11.08;100.00
7052;BME280;3567;52.444;13.556;2023-03-14T03:36:25;98730.31;;;11.09;100.00
7052;BME280;3567;52.444;13.556;2023-03-14T03:38:50;98726.81;;;11.08;100.00
7052;BME280;3567;52.444;13.556;2023-03-14T03:41:16;98726.00;;;11.08;100.00
7052;BME280;3567;52.444;13.556;2023-03-14T03:43:41;98740.22;;;11.08;100.00
7052;BME280;3567;52.444;13.556;2023-03-14T03:46:07;98734.03;;;11.08;100.00
7052;BME280;3567;52.444;13.556;2023-03-14T03:48:33;98739.41;;;11.08;100.00
7052;BME280;3567;52.444;13.556;2023-03-14T03:50:59;98735.38;;;11.10;99.59
7052;BME280;3567;52.444;13.556;2023-03-14T03:53:24;98724.94;;;11.09;99.83
7052;BME280;3567;52.444;13.556;2023-03-14T03:55:50;98727.34;;;11.10;100.00
7052;BME280;3567;52.444;13.556;2023-03-14T03:58:15;98728.13;;;11.11;99.82
7052;BME280;3567;52.444;13.556;2023-03-14T04:00:40;98720.66;;;11.08;100.00
7052;BME280;3567;52.444;13.556;2023-03-14T04:03:06;98724.94;;;11.09;99.81
7052;BME280;3567;52.444;13.556;2023-03-14T04:05:31;98721.72;;;11.07;99.62
7052;BME280;3567;52.444;13.556;2023-03-14T04:07:57;98745.03;;;11.06;99.88
7052;BME280;3567;52.444;13.556;2023-03-14T04:10:22;98746.94;;;11.06;99.93
7052;BME280;3567;52.444;13.556;2023-03-14T04:12:47;98715.88;;;11.05;99.76
7052;BME280;3567;52.444;13.556;2023-03-14T04:15:12;98720.44;;;11.04;99.36
7052;BME280;3567;52.444;13.556;2023-03-14T04:17:38;98725.78;;;11.04;99.27
7052;BME280;3567;52.444;13.556;2023-03-14T04:20:04;98736.78;;;11.02;99.23
7052;BME280;3567;52.444;13.556;2023-03-14T04:22:29;98730.88;;;11.00;99.67
7052;BME280;3567;52.444;13.556;2023-03-14T04:24:55;98721.25;;;10.99;99.18
7052;BME280;3567;52.444;13.556;2023-03-14T04:27:20;98712.72;;;10.97;99.37
7052;BME280;3567;52.444;13.556;2023-03-14T04:29:46;98708.16;;;10.98;99.51
7052;BME280;3567;52.444;13.556;2023-03-14T04:32:11;98701.19;;;10.97;99.05
7052;BME280;3567;52.444;13.556;2023-03-14T04:34:37;98710.03;;;10.97;98.74
7052;BME280;3567;52.444;13.556;2023-03-14T04:37:02;98705.72;;;10.96;99.12
7052;BME280;3567;52.444;13.556;2023-03-14T04:39:29;98695.03;;;10.96;98.99
7052;BME280;3567;52.444;13.556;2023-03-14T04:41:54;98692.63;;;10.95;98.84
7052;BME280;3567;52.444;13.556;2023-03-14T04:44:20;98692.38;;;10.91;99.18
7052;BME280;3567;52.444;13.556;2023-03-14T04:46:45;98689.47;;;10.88;99.13
7052;BME280;3567;52.444;13.556;2023-03-14T04:49:10;98681.19;;;10.84;99.23
7052;BME280;3567;52.444;13.556;2023-03-14T04:51:36;98683.88;;;10.84;99.05
7052;BME280;3567;52.444;13.556;2023-03-14T04:54:01;98678.81;;;10.83;99.34
7052;BME280;3567;52.444;13.556;2023-03-14T04:56:26;98680.16;;;10.80;98.84
7052;BME280;3567;52.444;13.556;2023-03-14T04:58:52;98659.81;;;10.79;98.76
7052;BME280;3567;52.444;13.556;2023-03-14T05:01:18;98653.94;;;10.77;98.53
7052;BME280;3567;52.444;13.556;2023-03-14T05:03:43;98661.44;;;10.75;99.07
7052;BME280;3567;52.444;13.556;2023-03-14T05:06:09;98658.25;;;10.73;98.49
7052;BME280;3567;52.444;13.556;2023-03-14T05:08:35;98669.78;;;10.73;99.08
7052;BME280;3567;52.444;13.556;2023-03-14T05:11:00;98686.38;;;10.70;98.68
7052;BME280;3567;52.444;13.556;2023-03-14T05:13:25;98677.28;;;10.71;98.45
7052;BME280;3567;52.444;13.556;2023-03-14T05:15:51;98682.66;;;10.71;98.46
7052;BME280;3567;52.444;13.556;2023-03-14T05:18:18;98675.41;;;10.72;97.96
7052;BME280;3567;52.444;13.556;2023-03-14T05:20:43;98664.97;;;10.70;97.68
7052;BME280;3567;52.444;13.556;2023-03-14T05:23:09;98651.84;;;10.69;97.74
7052;BME280;3567;52.444;13.556;2023-03-14T05:25:34;98639.56;;;10.68;97.86
7052;BME280;3567;52.444;13.556;2023-03-14T05:28:00;98644.91;;;10.68;97.79
7052;BME280;3567;52.444;13.556;2023-03-14T05:30:25;98646.53;;;10.64;97.49
7052;BME280;3567;52.444;13.556;2023-03-14T05:32:53;98643.06;;;10.63;97.60
7052;BME280;3567;52.444;13.556;2023-03-14T05:35:18;98646.28;;;10.65;97.03
7052;BME280;3567;52.444;13.556;2023-03-14T05:37:43;98648.69;;;10.67;97.01
7052;BME280;3567;52.444;13.556;2023-03-14T05:40:09;98653.75;;;10.68;96.64
7052;BME280;3567;52.444;13.556;2023-03-14T05:42:35;98653.44;;;10.70;96.52
7052;BME280;3567;52.444;13.556;2023-03-14T05:45:00;98650.78;;;10.70;96.42
7052;BME280;3567;52.444;13.556;2023-03-14T05:47:25;98648.38;;;10.68;96.22
7052;BME280;3567;52.444;13.556;2023-03-14T05:49:51;98652.66;;;10.69;95.53
7052;BME280;3567;52.444;13.556;2023-03-14T05:52:16;98653.44;;;10.70;95.54
7052;BME280;3567;52.444;13.556;2023-03-14T05:54:41;98659.59;;;10.70;95.52
7052;BME280;3567;52.444;13.556;2023-03-14T05:57:07;98649.72;;;10.71;95.12
7052;BME280;3567;52.444;13.556;2023-03-14T05:59:32;98650.22;;;10.73;95.33
7052;BME280;3567;52.444;13.556;2023-03-14T06:01:57;98648.34;;;10.73;94.58
7052;BME280;3567;52.444;13.556;2023-03-14T06:04:24;98644.31;;;10.76;94.81
7052;BME280;3567;52.444;13.556;2023-03-14T06:06:49;98649.41;;;10.78;94.29
7052;BME280;3567;52.444;13.556;2023-03-14T06:09:14;98638.38;;;10.79;93.98
7052;BME280;3567;52.444;13.556;2023-03-14T06:11:40;98645.88;;;10.82;94.36
7052;BME280;3567;52.444;13.556;2023-03-14T06:14:06;98659.25;;;10.82;93.61
7052;BME280;3567;52.444;13.556;2023-03-14T06:16:31;98652.53;;;10.85;93.56
7052;BME280;3567;52.444;13.556;2023-03-14T06:18:57;98643.66;;;10.89;93.43
7052;BME280;3567;52.444;13.556;2023-03-14T06:21:22;98645.25;;;10.90;92.64
7052;BME280;3567;52.444;13.556;2023-03-14T06:23:47;98646.06;;;10.91;92.33
7052;BME280;3567;52.444;13.556;2023-03-14T06:26:13;98648.97;;;10.94;92.61
7052;BME280;3567;52.444;13.556;2023-03-14T06:28:38;98656.47;;;10.97;92.64
7052;BME280;3567;52.444;13.556;2023-03-14T06:31:04;98656.97;;;10.99;92.36
7052;BME280;3567;52.444;13.556;2023-03-14T06:33:30;98652.13;;;11.01;92.31
7052;BME280;3567;52.444;13.556;2023-03-14T06:35:55;98658.00;;;11.04;91.62
7052;BME280;3567;52.444;13.556;2023-03-14T06:38:21;98675.91;;;11.08;91.79
7052;BME280;3567;52.444;13.556;2023-03-14T06:40:46;98670.78;;;11.12;90.80
7052;BME280;3567;52.444;13.556;2023-03-14T06:43:11;98653.34;;;11.14;91.20
7052;BME280;3567;52.444;13.556;2023-03-14T06:45:36;98664.28;;;11.18;90.95
7052;BME280;3567;52.444;13.556;2023-03-14T06:48:02;98653.31;;;11.19;89.82
7052;BME280;3567;52.444;13.556;2023-03-14T06:50:28;98665.03;;;11.23;89.95
7052;BME280;3567;52.444;13.556;2023-03-14T06:52:53;98679.47;;;11.27;90.18
7052;BME280;3567;52.444;13.556;2023-03-14T06:55:19;98681.84;;;11.29;90.00
7052;BME280;3567;52.444;13.556;2023-03-14T06:57:44;98685.06;;;11.31;89.83
7052;BME280;3567;52.444;13.556;2023-03-14T07:00:10;98688.78;;;11.35;89.66
7052;BME280;3567;52.444;13.556;2023-03-14T07:02:36;98694.66;;;11.37;89.14
7052;BME280;3567;52.444;13.556;2023-03-14T07:05:02;98686.56;;;11.42;89.53
7052;BME280;3567;52.444;13.556;2023-03-14T07:07:28;98698.53;;;11.50;89.74
7052;BME280;3567;52.444;13.556;2023-03-14T07:09:54;98706.28;;;11.57;88.34
7052;BME280;3567;52.444;13.556;2023-03-14T07:12:19;98710.78;;;11.61;88.27
7052;BME280;3567;52.444;13.556;2023-03-14T07:14:45;98723.06;;;11.67;88.46
7052;BME280;3567;52.444;13.556;2023-03-14T07:17:10;98713.63;;;11.70;88.02
7052;BME280;3567;52.444;13.556;2023-03-14T07:19:35;98711.47;;;11.72;88.12
7052;BME280;3567;52.444;13.556;2023-03-14T07:22:03;98709.59;;;11.72;87.68
7052;BME280;3567;52.444;13.556;2023-03-14T07:24:29;98713.63;;;11.70;87.58
7052;BME280;3567;52.444;13.556;2023-03-14T07:26:54;98719.00;;;11.70;87.61
7052;BME280;3567;52.444;13.556;2023-03-14T07:29:20;98712.03;;;11.69;87.37
7052;BME280;3567;52.444;13.556;2023-03-14T07:31:46;98717.63;;;11.72;87.10
7052;BME280;3567;52.444;13.556;2023-03-14T07:34:11;98720.03;;;11.74;87.68
7052;BME280;3567;52.444;13.556;2023-03-14T07:36:36;98715.16;;;11.76;87.71
7052;BME280;3567;52.444;13.556;2023-03-14T07:39:02;98719.44;;;11.77;87.99
7052;BME280;3567;52.444;13.556;2023-03-14T07:41:29;98717.59;;;11.77;87.31
7052;BME280;3567;52.444;13.556;2023-03-14T07:43:54;98718.38;;;11.78;87.04
7052;BME280;3567;52.444;13.556;2023-03-14T07:46:20;98718.94;;;11.75;87.71
7052;BME280;3567;52.444;13.556;2023-03-14T07:48:45;98721.84;;;11.78;87.13
7052;BME280;3567;52.444;13.556;2023-03-14T07:51:10;98724.81;;;11.77;87.04
7052;BME280;3567;52.444;13.556;2023-03-14T07:53:36;98724.81;;;11.77;86.56
7052;BME280;3567;52.444;13.556;2023-03-14T07:56:01;98716.25;;;11.75;86.72
7052;BME280;3567;52.444;13.556;2023-03-14T07:58:27;98717.84;;;11.76;86.62
7052;BME280;3567;52.444;13.556;2023-03-14T08:00:52;98717.84;;;11.76;87.61
7052;BME280;3567;52.444;13.556;2023-03-14T08:03:18;98711.91;;;11.79;86.86
7052;BME280;3567;52.444;13.556;2023-03-14T08:05:45;98715.09;;;11.86;87.09
7052;BME280;3567;52.444;13.556;2023-03-14T08:08:11;98717.88;;;12.00;87.16
7052;BME280;3567;52.444;13.556;2023-03-14T08:10:37;98709.84;;;12.19;86.75
7052;BME280;3567;52.444;13.556;2023-03-14T08:13:02;98705.38;;;12.33;85.50
7052;BME280;3567;52.444;13.556;2023-03-14T08:15:29;98705.81;;;12.40;85.23
7052;BME280;3567;52.444;13.556;2023-03-14T08:17:55;98696.09;;;12.44;85.10
7052;BME280;3567;52.444;13.556;2023-03-14T08:20:22;98697.59;;;12.50;84.64
7052;BME280;3567;52.444;13.556;2023-03-14T08:22:48;98708.88;;;12.52;84.27
7052;BME280;3567;52.444;13.556;2023-03-14T08:25:13;98709.38;;;12.54;84.72
7052;BME280;3567;52.444;13.556;2023-03-14T08:27:39;98698.56;;;12.59;84.65
7052;BME280;3567;52.444;13.556;2023-03-14T08:30:07;98705.50;;;12.61;83.83
7052;BME280;3567;52.444;13.556;2023-03-14T08:32:34;98703.34;;;12.63;84.31
7052;BME280;3567;52.444;13.556;2023-03-14T08:34:59;98710.31;;;12.64;83.36
7052;BME280;3567;52.444;13.556;2023-03-14T08:37:24;98708.72;;;12.63;83.51
7052;BME280;3567;52.444;13.556;2023-03-14T08:39:51;98712.28;;;12.58;83.59
7052;BME280;3567;52.444;13.556;2023-03-14T08:42:16;98719.63;;;12.52;83.84
7052;BME280;3567;52.444;13.556;2023-03-14T08:44:42;98727.75;;;12.47;83.95
7052;BME280;3567;52.444;13.556;2023-03-14T08:47:07;98716.78;;;12.44;84.54
7052;BME280;3567;52.444;13.556;2023-03-14T08:49:33;98719.75;;;12.42;84.15
7052;BME280;3567;52.444;13.556;2023-03-14T08:51:58;98709.81;;;12.43;84.10
7052;BME280;3567;52.444;13.556;2023-03-14T08:54:24;98706.75;;;12.49;84.41
7052;BME280;3567;52.444;13.556;2023-03-14T08:56:49;98721.13;;;12.58;83.94
7052;BME280;3567;52.444;13.556;2023-03-14T08:59:15;98715.97;;;12.62;83.40
7052;BME280;3567;52.444;13.556;2023-03-14T09:01:40;98720.47;;;12.67;83.03
7052;BME280;3567;52.444;13.556;2023-03-14T09:04:05;98729.03;;;12.69;83.12
7052;BME280;3567;52.444;13.556;2023-03-14T09:06:32;98725.03;;;12.66;82.74
7052;BME280;3567;52.444;13.556;2023-03-14T09:08:57;98723.22;;;12.62;82.84
7052;BME280;3567;52.444;13.556;2023-03-14T09:11:22;98716.56;;;12.59;82.92
7052;BME280;3567;52.444;13.556;2023-03-14T09:13:48;98715.09;;;12.67;82.86
7052;BME280;3567;52.444;13.556;2023-03-14T09:16:13;98712.78;;;12.79;83.21
7052;BME280;3567;52.444;13.556;2023-03-14T09:18:39;98714.47;;;13.07;82.04
7052;BME280;3567;52.444;13.556;2023-03-14T09:21:04;98699.41;;;13.25;81.50
7052;BME280;3567;52.444;13.556;2023-03-14T09:23:30;98676.91;;;13.35;80.73
7052;BME280;3567;52.444;13.556;2023-03-14T09:25:57;98698.16;;;13.78;80.02
7052;BME280;3567;52.444;13.556;2023-03-14T09:28:22;98690.16;;;14.28;78.26
7052;BME280;3567;52.444;13.556;2023-03-14T09:30:48;98688.16;;;14.92;76.36
7052;BME280;3567;52.444;13.556;2023-03-14T09:33:15;98682.91;;;15.49;74.22
7052;BME280;3567;52.444;13.556;2023-03-14T09:35:40;98677.09;;;15.95;72.77
7052;BME280;3567;52.444;13.556;2023-03-14T09:38:06;98685.09;;;16.27;67.96
7052;BME280;3567;52.444;13.556;2023-03-14T09:40:34;98691.00;;;16.37;68.92
7052;BME280;3567;52.444;13.556;2023-03-14T09:43:00;98682.09;;;16.63;68.09
7052;BME280;3567;52.444;13.556;2023-03-14T09:45:28;98670.50;;;16.80;63.71
7052;BME280;3567;52.444;13.556;2023-03-14T09:47:55;98683.03;;;16.93;64.85
7052;BME280;3567;52.444;13.556;2023-03-14T09:50:22;98680.63;;;17.17;64.15
7052;BME280;3567;52.444;13.556;2023-03-14T09:52:51;98669.84;;;17.00;62.55
7052;BME280;3567;52.444;13.556;2023-03-14T09:55:20;98671.13;;;16.94;61.88
7052;BME280;3567;52.444;13.556;2023-03-14T09:57:48;98676.69;;;16.63;63.24
7052;BME280;3567;52.444;13.556;2023-03-14T10:00:21;98673.91;;;15.93;63.61
7052;BME280;3567;52.444;13.556;2023-03-14T10:02:53;98680.19;;;15.40;66.19
7052;BME280;3567;52.444;13.556;2023-03-14T10:05:22;98677.16;;;15.11;67.01
7052;BME280;3567;52.444;13.556;2023-03-14T10:07:48;98690.34;;;14.90;67.92
7052;BME280;3567;52.444;13.556;2023-03-14T10:10:18;98693.06;;;14.67;68.39
7052;BME280;3567;52.444;13.556;2023-03-14T10:12:46;98683.81;;;14.46;68.61
7052;BME280;3567;52.444;13.556;2023-03-14T10:15:13;98691.00;;;14.37;69.25
7052;BME280;3567;52.444;13.556;2023-03-14T10:17:52;98697.72;;;14.26;69.68
7052;BME280;3567;52.444;13.556;2023-03-14T10:20:30;98695.25;;;14.15;69.38
7052;BME280;3567;52.444;13.556;2023-03-14T10:23:23;98688.28;;;14.01;71.09
7052;BME280;3567;52.444;13.556;2023-03-14T10:26:07;98690.28;;;13.95;71.52
7052;BME280;3567;52.444;13.556;2023-03-14T10:29:13;98685.63;;;13.87;71.07
7052;BME280;3567;52.444;13.556;2023-03-14T10:34:22;98699.28;;;13.77;71.07
7052;BME280;3567;52.444;13.556;2023-03-14T10:36:52;98699.06;;;13.73;71.07
7052;BME280;3567;52.444;13.556;2023-03-14T10:39:41;98693.50;;;13.70;70.21
7052;BME280;3567;52.444;13.556;2023-03-14T10:42:21;98694.56;;;13.69;71.50
7052;BME280;3567;52.444;13.556;2023-03-14T10:44:54;98694.38;;;13.65;71.59
7052;BME280;3567;52.444;13.556;2023-03-14T10:47:23;98691.38;;;13.67;71.34
7052;BME280;3567;52.444;13.556;2023-03-14T10:49:50;98688.50;;;13.63;71.57
7052;BME280;3567;52.444;13.556;2023-03-14T10:52:18;98689.00;;;13.65;71.67
7052;BME280;3567;52.444;13.556;2023-03-14T10:54:58;98689.00;;;13.65;71.45
7052;BME280;3567;52.444;13.556;2023-03-14T10:57:26;98700.88;;;13.64;72.01
7052;BME280;3567;52.444;13.556;2023-03-14T10:59:53;98688.88;;;13.56;71.44
7052;BME280;3567;52.444;13.556;2023-03-14T11:10:52;98695.88;;;13.44;74.03
7052;BME280;3567;52.444;13.556;2023-03-14T11:13:43;98706.41;;;13.40;73.74
7052;BME280;3567;52.444;13.556;2023-03-14T11:16:22;98707.19;;;13.41;74.19
7052;BME280;3567;52.444;13.556;2023-03-14T11:18:53;98709.00;;;13.45;73.99
7052;BME280;3567;52.444;13.556;2023-03-14T11:21:42;98696.88;;;13.48;74.28
7052;BME280;3567;52.444;13.556;2023-03-14T11:24:28;98711.59;;;13.50;74.16
7052;BME280;3567;52.444;13.556;2023-03-14T11:27:07;98714.78;;;13.52;75.19
7052;BME280;3567;52.444;13.556;2023-03-14T11:29:55;98702.44;;;13.51;74.91
7052;BME280;3567;52.444;13.556;2023-03-14T11:32:43;98700.06;;;13.50;75.42
7052;BME280;3567;52.444;13.556;2023-03-14T11:35:17;98707.81;;;13.51;75.45
7052;BME280;3567;52.444;13.556;2023-03-14T11:37:54;98699.56;;;13.48;76.03
7052;BME280;3567;52.444;13.556;2023-03-14T11:40:23;98704.63;;;13.49;76.27
7052;BME280;3567;52.444;13.556;2023-03-14T11:43:11;98693.09;;;13.49;75.86
7052;BME280;3567;52.444;13.556;2023-03-14T11:45:41;98705.72;;;13.48;76.10
7052;BME280;3567;52.444;13.556;2023-03-14T11:48:15;98694.97;;;13.48;75.89
7052;BME280;3567;52.444;13.556;2023-03-14T11:50:43;98693.34;;;13.47;75.99
7052;BME280;3567;52.444;13.556;2023-03-14T11:53:13;98703.84;;;13.49;75.88
7052;BME280;3567;52.444;13.556;2023-03-14T11:55:42;98698.47;;;13.49;76.18
7052;BME280;3567;52.444;13.556;2023-03-14T12:00:49;98713.53;;;13.31;80.10
7052;BME280;3567;52.444;13.556;2023-03-14T12:06:02;98716.59;;;12.73;86.15
7052;BME280;3567;52.444;13.556;2023-03-14T12:08:53;98713.22;;;12.48;88.25
7052;BME280;3567;52.444;13.556;2023-03-14T12:11:20;98710.94;;;12.18;91.07
7052;BME280;3567;52.444;13.556;2023-03-14T12:13:51;98718.78;;;11.90;93.90
7052;BME280;3567;52.444;13.556;2023-03-14T12:18:50;98703.75;;;11.41;99.09
7052;BME280;3567;52.444;13.556;2023-03-14T12:21:17;98686.44;;;11.28;100.00
7052;BME280;3567;52.444;13.556;2023-03-14T12:23:54;98696.69;;;11.21;100.00
7052;BME280;3567;52.444;13.556;2023-03-14T12:26:23;98690.53;;;11.21;100.00
7052;BME280;3567;52.444;13.556;2023-03-14T12:28:51;98686.22;;;11.25;100.00
7052;BME280;3567;52.444;13.556;2023-03-14T12:39:17;98667.59;;;11.63;100.00
7052;BME280;3567;52.444;13.556;2023-03-14T12:41:53;98666.38;;;11.74;100.00
7052;BME280;3567;52.444;13.556;2023-03-14T12:46:58;98673.63;;;11.97;100.00
7052;BME280;3567;52.444;13.556;2023-03-14T12:49:31;98660.00;;;12.13;100.00
7052;BME280;3567;52.444;13.556;2023-03-14T12:52:00;98668.94;;;12.27;100.00
7052;BME280;3567;52.444;13.556;2023-03-14T13:00:13;98666.59;;;12.77;100.00
7052;BME280;3567;52.444;13.556;2023-03-14T13:02:29;98662.28;;;12.95;100.00
7052;BME280;3567;52.444;13.556;2023-03-14T13:05:09;98651.06;;;13.06;99.41
7052;BME280;3567;52.444;13.556;2023-03-14T13:10:29;98636.63;;;13.16;100.00
7052;BME280;3567;52.444;13.556;2023-03-14T13:13:30;98647.75;;;13.09;97.04
7052;BME280;3567;52.444;13.556;2023-03-14T13:15:57;98635.72;;;13.07;100.00
7052;BME280;3567;52.444;13.556;2023-03-14T13:18:38;98633.22;;;12.97;100.00
7052;BME280;3567;52.444;13.556;2023-03-14T13:21:21;98625.16;;;12.97;98.88
7052;BME280;3567;52.444;13.556;2023-03-14T13:23:59;98626.97;;;13.15;100.00
7052;BME280;3567;52.444;13.556;2023-03-14T13:26:32;98629.22;;;13.27;97.78
7052;BME280;3567;52.444;13.556;2023-03-14T13:28:59;98625.34;;;13.33;95.97
7052;BME280;3567;52.444;13.556;2023-03-14T13:31:25;98631.09;;;13.40;93.61
7052;BME280;3567;52.444;13.556;2023-03-14T13:34:02;98625.72;;;13.68;92.81
7052;BME280;3567;52.444;13.556;2023-03-14T13:36:29;98637.53;;;14.08;92.17
7052;BME280;3567;52.444;13.556;2023-03-14T13:38:59;98646.38;;;14.22;93.17
7052;BME280;3567;52.444;13.556;2023-03-14T13:41:25;98657.56;;;14.15;93.85
7052;BME280;3567;52.444;13.556;2023-03-14T13:43:51;98656.78;;;14.37;93.51
7052;BME280;3567;52.444;13.556;2023-03-14T13:46:21;98656.66;;;14.79;91.82
7052;BME280;3567;52.444;13.556;2023-03-14T13:48:50;98644.28;;;15.00;89.57
7052;BME280;3567;52.444;13.556;2023-03-14T13:51:17;98646.84;;;15.05;87.59
7052;BME280;3567;52.444;13.556;2023-03-14T13:53:46;98653.69;;;15.11;85.76
7052;BME280;3567;52.444;13.556;2023-03-14T13:56:12;98642.69;;;14.99;83.67
7052;BME280;3567;52.444;13.556;2023-03-14T13:58:39;98638.03;;;14.91;85.32